Time;durP1;ratioP1;P1;durP2;ratioP2;P2;SDS_P1;SDS_P2;PMS_P1;PMS_P2;Temp;Humidity;BMP_temperature;BMP_pressure;BME280_temperature;BME280_humidity;BME280_pressure;Samples;Min_cycle;Max_cycle;Signal;HPM_P1;HPM_P2
2022/09/03 00:00:24;;;;;;;21.02;12.10;;;;;;;20.42;87.53;99438.13;3146602;28;20468;-60
2022/09/03 00:02:02;;;;;;;20.63;12.93;;;;;;;20.44;87.00;99435.34;3147467;28;20440;-60
2022/09/03 00:03:42;;;;;;;18.95;12.20;;;;;;;20.48;87.37;99439.38;3144906;28;20448;-60
2022/09/03 00:05:22;;;;;;;21.92;13.27;;;;;;;20.48;87.04;99439.38;3145218;28;20067;-60
2022/09/03 00:07:01;;;;;;;20.25;12.93;;;;;;;20.50;86.88;99439.22;3145173;28;20563;-60
2022/09/03 00:08:39;;;;;;;21.17;12.68;;;;;;;20.50;86.50;99437.41;3145356;28;20135;-61
2022/09/03 00:10:14;;;;;;;20.08;12.63;;;;;;;20.51;86.60;99436.44;3145191;28;20040;-61
2022/09/03 00:11:50;;;;;;;20.52;12.18;;;;;;;20.52;86.64;99448.69;3145277;28;20045;-60
2022/09/03 00:13:27;;;;;;;17.58;12.95;;;;;;;20.53;86.59;99449.53;3144915;28;20524;-61
2022/09/03 00:15:04;;;;;;;26.55;13.15;;;;;;;20.54;86.58;99448.56;3145215;28;20040;-60
2022/09/03 00:16:45;;;;;;;18.95;13.00;;;;;;;20.54;86.30;99446.75;3145136;28;20080;-60
2022/09/03 00:18:21;;;;;;;20.60;11.90;;;;;;;20.55;86.26;99453.72;3145346;28;20048;-60
2022/09/03 00:19:57;;;;;;;18.08;12.27;;;;;;;20.57;86.24;99450.94;3145392;28;20106;-61
2022/09/03 00:21:38;;;;;;;15.68;12.07;;;;;;;20.43;86.25;99433.66;3145103;28;20041;-60
2022/09/03 00:23:15;;;;;;;20.83;12.32;;;;;;;20.49;86.73;99450.78;3145346;28;20390;-60
2022/09/03 00:24:47;;;;;;;17.65;12.15;;;;;;;20.48;86.28;99451.75;3145274;28;20242;-60
2022/09/03 00:26:25;;;;;;;17.70;11.63;;;;;;;20.46;86.17;99455.34;3145159;28;20500;-60
2022/09/03 00:28:00;;;;;;;20.25;11.85;;;;;;;20.46;86.49;99452.72;3140336;28;20120;-60
2022/09/03 00:29:36;;;;;;;16.52;11.05;;;;;;;20.44;86.31;99446.75;3139220;28;20124;-60
2022/09/03 00:31:17;;;;;;;18.95;12.15;;;;;;;20.48;86.63;99463.16;3145150;28;20048;-60
2022/09/03 00:32:52;;;;;;;15.20;11.25;;;;;;;20.48;86.52;99454.41;3145110;28;20052;-60
2022/09/03 00:34:29;;;;;;;18.58;12.20;;;;;;;20.49;86.11;99454.25;3143615;28;20055;-61
2022/09/03 00:36:13;;;;;;;20.35;12.10;;;;;;;20.49;86.48;99450.78;3145188;28;20048;-60
2022/09/03 00:37:44;;;;;;;25.30;12.70;;;;;;;20.48;85.99;99457.88;3145098;28;20052;-60
2022/09/03 00:39:17;;;;;;;20.77;12.38;;;;;;;20.44;86.43;99446.75;3145233;28;20075;-60
2022/09/03 00:41:02;;;;;;;20.73;11.93;;;;;;;20.42;86.23;99442.56;3144658;28;20052;-60
2022/09/03 00:42:47;;;;;;;20.10;12.10;;;;;;;20.41;86.55;99444.38;3145164;28;20049;-60
2022/09/03 00:44:37;;;;;;;21.13;12.52;;;;;;;20.31;86.92;99443.53;3145158;28;20103;-60
2022/09/03 00:46:18;;;;;;;16.38;11.88;;;;;;;20.23;87.38;99443.41;3144967;28;20498;-60
2022/09/03 00:48:04;;;;;;;20.15;13.02;;;;;;;20.20;87.21;99443.69;3145171;28;20080;-60
2022/09/03 00:49:51;;;;;;;22.67;13.23;;;;;;;20.16;87.58;99445.78;3144945;28;20052;-60
2022/09/03 00:51:33;;;;;;;20.02;13.23;;;;;;;20.18;86.98;99440.38;3144886;28;20053;-60
2022/09/03 00:53:12;;;;;;;18.63;13.77;;;;;;;20.18;87.55;99443.00;3144901;28;20611;-60
2022/09/03 00:54:51;;;;;;;23.55;13.73;;;;;;;20.18;87.55;99443.84;3144777;28;20410;-60
2022/09/03 00:56:34;;;;;;;20.17;14.05;;;;;;;20.19;87.61;99445.50;3144959;28;20052;-60
2022/09/03 00:58:22;;;;;;;18.42;13.98;;;;;;;20.15;87.49;99438.84;3145861;28;20043;-60
2022/09/03 00:59:59;;;;;;;22.60;13.57;;;;;;;20.11;87.81;99442.72;3144911;28;20056;-60
2022/09/03 01:01:38;;;;;;;23.52;13.90;;;;;;;20.09;87.82;99444.69;3139105;28;20436;-60
2022/09/03 01:03:15;;;;;;;22.25;13.57;;;;;;;20.05;88.07;99439.78;3145020;28;20076;-60
2022/09/03 01:05:00;;;;;;;19.55;14.25;;;;;;;20.05;88.10;99445.91;3138612;28;20492;-60
2022/09/03 01:06:42;;;;;;;21.63;14.55;;;;;;;20.07;88.41;99451.06;3139416;28;20060;-61
2022/09/03 01:08:31;;;;;;;21.42;15.23;;;;;;;20.08;88.14;99450.91;3139790;28;20056;-60
2022/09/03 01:10:16;;;;;;;18.17;13.32;;;;;;;20.08;88.14;99450.91;3144815;28;20052;-60
2022/09/03 01:11:59;;;;;;;23.10;13.73;;;;;;;20.08;88.34;99447.44;3145020;28;20059;-60
2022/09/03 01:13:37;;;;;;;24.52;14.15;;;;;;;20.08;87.94;99450.09;3147079;28;20504;-60
2022/09/03 01:15:15;;;;;;;19.40;13.98;;;;;;;20.03;87.99;99450.53;3147325;28;20071;-60
2022/09/03 01:16:52;;;;;;;20.65;13.88;;;;;;;20.04;88.16;99454.81;3147409;28;20143;-60
2022/09/03 01:18:32;;;;;;;22.48;14.43;;;;;;;20.07;88.04;99446.63;3147221;28;20045;-60
2022/09/03 01:20:21;;;;;;;20.20;13.82;;;;;;;20.03;87.99;99445.22;3147158;28;20434;-60
2022/09/03 01:22:19;;;;;;;21.08;13.48;;;;;;;19.97;87.92;99436.03;3147274;28;20048;-60
2022/09/03 01:24:13;;;;;;;25.48;13.63;;;;;;;19.92;88.44;99438.25;3147003;28;20044;-60
2022/09/03 01:25:54;;;;;;;26.45;14.85;;;;;;;19.97;88.37;99448.44;3146960;28;20074;-60
2022/09/03 01:27:42;;;;;;;22.05;13.38;;;;;;;19.94;88.42;99446.91;3147212;28;20053;-60
2022/09/03 01:29:25;;;;;;;22.35;14.23;;;;;;;19.93;88.45;99447.03;3146943;28;20048;-60
2022/09/03 01:31:10;;;;;;;21.00;14.17;;;;;;;19.92;88.88;99448.00;3146467;28;20106;-61
2022/09/03 01:32:48;;;;;;;19.67;13.10;;;;;;;19.94;88.55;99448.72;3147098;28;20052;-60
2022/09/03 01:34:31;;;;;;;22.25;13.68;;;;;;;19.95;88.79;99445.09;3146783;28;20146;-60
2022/09/03 01:36:14;;;;;;;25.75;14.23;;;;;;;19.96;88.40;99452.03;3145769;28;20060;-60
2022/09/03 01:38:01;;;;;;;19.70;13.85;;;;;;;19.95;88.44;99445.91;3145308;28;20320;-60
2022/09/03 01:39:44;;;;;;;18.50;13.65;;;;;;;19.95;88.47;99445.91;3146965;28;20114;-61
2022/09/03 01:43:35;;;;;;;22.92;13.55;;;;;;;19.92;88.13;99442.72;3146847;28;20040;-61
2022/09/03 01:45:30;;;;;;;18.75;12.40;;;;;;;19.88;88.40;99442.16;3141378;28;20131;-60
2022/09/03 01:47:08;;;;;;;19.52;12.20;;;;;;;19.87;88.35;99447.56;3144116;28;20110;-60
2022/09/03 01:48:46;;;;;;;20.65;12.85;;;;;;;19.88;88.12;99442.16;3143752;28;20457;-61
2022/09/03 01:50:28;;;;;;;18.65;13.35;;;;;;;19.89;88.23;99448.28;3146716;28;20068;-60
2022/09/03 01:52:06;;;;;;;19.30;12.15;;;;;;;19.89;88.09;99449.09;3146568;28;20585;-61
2022/09/03 01:54:06;;;;;;;20.95;11.98;;;;;;;19.89;87.97;99446.47;3152312;28;20056;-60
2022/09/03 01:55:49;;;;;;;17.17;11.90;;;;;;;19.89;88.40;99441.19;3140449;28;20091;-61
2022/09/03 01:57:48;;;;;;;25.33;12.65;;;;;;;19.88;87.76;99442.16;3144200;28;20114;-60
2022/09/03 01:59:25;;;;;;;15.23;11.95;;;;;;;19.90;87.81;99437.56;3143712;28;20045;-60
2022/09/03 02:01:03;;;;;;;19.98;12.45;;;;;;;19.90;87.93;99436.72;3146469;28;20139;-61
2022/09/03 02:02:35;;;;;;;19.42;12.75;;;;;;;19.90;87.95;99437.56;3146915;28;20055;-61
2022/09/03 02:04:17;;;;;;;20.40;12.73;;;;;;;19.92;87.66;99446.19;3146695;28;20084;-61
2022/09/03 02:05:51;;;;;;;20.08;12.52;;;;;;;19.90;87.33;99439.38;3146741;28;20142;-60
2022/09/03 02:07:24;;;;;;;17.23;12.18;;;;;;;19.90;87.17;99436.72;3146791;28;20456;-60
2022/09/03 02:08:56;;;;;;;19.17;13.02;;;;;;;19.89;87.12;99437.72;3146884;28;20053;-60
2022/09/03 02:10:31;;;;;;;19.55;11.98;;;;;;;19.89;86.98;99446.47;3146867;28;20055;-60
2022/09/03 02:12:10;;;;;;;15.52;12.18;;;;;;;19.86;86.88;99445.91;3146670;28;20048;-61
2022/09/03 02:13:45;;;;;;;19.38;11.95;;;;;;;19.86;86.50;99456.47;3146858;28;20048;-61
2022/09/03 02:15:20;;;;;;;16.95;12.18;;;;;;;19.83;86.37;99452.31;3146416;28;20048;-61
2022/09/03 02:16:53;;;;;;;15.80;12.40;;;;;;;19.83;86.28;99456.75;3146476;28;20048;-60
2022/09/03 02:18:30;;;;;;;22.40;12.65;;;;;;;19.83;86.67;99456.75;3146428;28;20093;-60
2022/09/03 02:20:05;;;;;;;21.33;13.30;;;;;;;19.84;86.63;99456.59;3146590;28;20048;-60
2022/09/03 02:21:40;;;;;;;17.95;12.50;;;;;;;19.84;86.18;99458.41;3146713;28;20527;-60
2022/09/03 02:23:11;;;;;;;19.55;12.30;;;;;;;19.81;86.21;99462.16;3146192;28;20556;-61
2022/09/03 02:24:43;;;;;;;18.33;11.73;;;;;;;19.77;86.52;99461.59;3145697;28;20048;-61
2022/09/03 02:26:19;;;;;;;21.75;11.27;;;;;;;19.77;86.48;99461.59;3146486;28;20070;-60
2022/09/03 02:27:53;;;;;;;17.77;12.35;;;;;;;19.79;86.13;99466.78;3146428;28;20056;-61
2022/09/03 02:29:25;;;;;;;14.75;11.13;;;;;;;19.75;86.04;99465.34;3146414;28;20477;-61
2022/09/03 02:30:57;;;;;;;20.00;11.10;;;;;;;19.80;86.26;99467.59;3144475;28;20455;-61
2022/09/03 02:32:30;;;;;;;15.40;11.27;;;;;;;19.78;85.84;99479.13;3146119;28;20052;-62
2022/09/03 02:34:02;;;;;;;20.73;11.60;;;;;;;19.75;86.42;99476.75;3145782;28;20114;-62
2022/09/03 02:35:34;;;;;;;21.83;11.80;;;;;;;19.70;85.98;99467.56;3146288;28;20125;-62
2022/09/03 02:37:13;;;;;;;17.03;11.10;;;;;;;19.72;86.33;99474.38;3146347;28;20041;-62
2022/09/03 02:38:45;;;;;;;15.38;11.32;;;;;;;19.71;85.74;99477.16;3146178;28;20355;-62
2022/09/03 02:40:17;;;;;;;22.52;11.68;;;;;;;19.67;86.04;99479.25;3146474;28;20117;-61
2022/09/03 02:41:54;;;;;;;19.35;11.05;;;;;;;19.69;85.77;99481.75;3146282;28;20075;-62
2022/09/03 02:43:34;;;;;;;20.23;11.50;;;;;;;19.68;85.75;99480.09;3146363;28;20150;-62
2022/09/03 02:45:17;;;;;;;18.30;12.07;;;;;;;19.68;85.73;99488.84;3145924;28;20051;-64
2022/09/03 02:46:54;;;;;;;14.55;11.23;;;;;;;19.66;85.65;99482.84;3146255;28;20436;-61
2022/09/03 02:48:27;;;;;;;17.48;12.02;;;;;;;19.68;85.47;99485.38;3146051;28;20044;-62
2022/09/03 02:49:58;;;;;;;21.45;12.20;;;;;;;19.69;85.82;99484.38;3147772;28;20049;-62
2022/09/03 02:51:34;;;;;;;18.75;12.52;;;;;;;19.63;85.20;99474.34;3146163;28;20522;-62
2022/09/03 02:53:04;;;;;;;19.10;11.50;;;;;;;19.67;85.39;99483.69;3140693;28;20608;-62
2022/09/03 02:54:38;;;;;;;16.42;12.23;;;;;;;19.66;85.28;99484.66;3145974;28;20083;-62
2022/09/03 02:56:10;;;;;;;18.38;11.88;;;;;;;19.63;85.51;99487.53;3145626;28;20048;-63
2022/09/03 02:57:42;;;;;;;20.33;12.77;;;;;;;19.63;85.25;99482.25;3145910;28;20549;-62
2022/09/03 02:59:14;;;;;;;16.45;11.52;;;;;;;19.60;85.28;99480.72;3146256;28;20057;-62
2022/09/03 03:00:48;;;;;;;18.52;11.75;;;;;;;19.55;85.63;99485.56;3145713;28;20112;-62
2022/09/03 03:02:19;;;;;;;17.52;12.60;;;;;;;19.57;85.31;99488.06;3145902;28;20525;-62
2022/09/03 03:03:53;;;;;;;21.83;12.73;;;;;;;19.49;85.73;99473.75;3145665;28;20129;-62
2022/09/03 03:05:32;;;;;;;17.17;11.27;;;;;;;19.55;85.57;99481.13;3144077;28;20059;-62
2022/09/03 03:07:04;;;;;;;17.52;11.82;;;;;;;19.53;85.69;99487.50;3145898;28;20454;-62
2022/09/03 03:08:34;;;;;;;20.10;12.15;;;;;;;19.51;85.43;99481.53;3145619;28;20477;-62
2022/09/03 03:10:07;;;;;;;23.15;12.13;;;;;;;19.49;85.32;99483.44;3145990;28;20048;-62
2022/09/03 03:11:40;;;;;;;19.17;11.98;;;;;;;19.48;85.56;99481.78;3146073;28;20048;-61
2022/09/03 03:13:12;;;;;;;19.83;11.63;;;;;;;19.47;85.52;99480.13;3146064;28;20044;-61
2022/09/03 03:14:43;;;;;;;20.10;12.85;;;;;;;19.48;85.50;99481.78;3145801;28;20044;-61
2022/09/03 03:16:16;;;;;;;17.38;12.65;;;;;;;19.46;85.28;99478.44;3145468;28;20048;-61
2022/09/03 03:17:47;;;;;;;19.30;12.05;;;;;;;19.45;85.71;99480.25;3146073;28;20130;-61
2022/09/03 03:19:20;;;;;;;17.17;11.57;;;;;;;19.42;85.41;99477.88;3145842;28;20056;-61
2022/09/03 03:20:51;;;;;;;19.40;11.25;;;;;;;19.38;85.44;99480.94;3145711;28;20055;-61
2022/09/03 03:22:23;;;;;;;17.75;12.13;;;;;;;19.35;85.85;99473.28;3145721;28;20049;-61
2022/09/03 03:23:55;;;;;;;23.42;12.60;;;;;;;19.38;85.67;99479.13;3145407;28;20060;-62
2022/09/03 03:25:27;;;;;;;15.45;11.00;;;;;;;19.37;85.88;99476.59;3145867;28;20106;-61
2022/09/03 03:26:59;;;;;;;18.02;11.80;;;;;;;19.38;85.53;99475.66;3145817;28;20053;-61
2022/09/03 03:28:33;;;;;;;17.67;12.77;;;;;;;19.39;85.28;99477.31;3145600;28;20055;-61
2022/09/03 03:30:09;;;;;;;14.65;11.40;;;;;;;19.39;85.35;99475.50;3145599;28;20055;-61
2022/09/03 03:31:40;;;;;;;17.15;11.13;;;;;;;19.40;84.89;99482.44;3139141;28;20052;-61
2022/09/03 03:33:11;;;;;;;16.48;10.85;;;;;;;19.42;84.90;99475.25;3145700;28;20044;-61
2022/09/03 03:34:44;;;;;;;16.63;10.43;;;;;;;19.45;84.71;99471.50;3145751;28;20052;-61
2022/09/03 03:36:16;;;;;;;15.07;10.27;;;;;;;19.38;84.48;99465.09;3145475;28;20052;-61
2022/09/03 03:37:49;;;;;;;16.60;11.35;;;;;;;19.42;84.69;99477.06;3145448;28;20052;-61
2022/09/03 03:39:20;;;;;;;17.05;10.75;;;;;;;19.42;84.25;99469.97;3145307;28;20079;-61
2022/09/03 03:40:51;;;;;;;16.67;10.73;;;;;;;19.42;84.29;99474.41;3145612;28;20105;-61
2022/09/03 03:42:23;;;;;;;19.10;11.55;;;;;;;19.38;84.35;99470.38;3145567;28;20221;-61
2022/09/03 03:43:56;;;;;;;13.52;10.30;;;;;;;19.37;84.21;99468.69;3145272;28;20048;-61
2022/09/03 03:45:28;;;;;;;15.05;10.85;;;;;;;19.39;84.01;99478.16;3147807;28;20059;-62
2022/09/03 03:47:00;;;;;;;15.43;10.65;;;;;;;19.39;84.22;99474.69;3145913;28;20135;-61
2022/09/03 03:48:31;;;;;;;23.52;10.32;;;;;;;19.41;84.14;99478.84;3145516;28;20060;-61
2022/09/03 03:50:05;;;;;;;15.18;10.15;;;;;;;19.42;83.72;99475.25;3145446;28;20056;-62
2022/09/03 03:51:38;;;;;;;14.48;9.98;;;;;;;19.43;83.70;99481.34;3145336;28;20055;-62
2022/09/03 03:53:09;;;;;;;15.45;10.95;;;;;;;19.45;83.95;99484.69;3145468;28;20477;-61
2022/09/03 03:54:40;;;;;;;14.20;10.02;;;;;;;19.46;83.67;99476.66;3145505;28;20060;-61
2022/09/03 03:56:15;;;;;;;19.98;10.07;;;;;;;19.46;83.44;99475.81;3144945;28;20048;-61
2022/09/03 03:57:47;;;;;;;22.88;9.18;;;;;;;19.47;83.92;99480.13;3145461;28;20045;-61
2022/09/03 03:59:18;;;;;;;15.00;9.98;;;;;;;19.47;83.49;99483.59;3145272;28;20049;-62
2022/09/03 04:00:49;;;;;;;14.85;10.45;;;;;;;19.47;83.82;99482.78;3145293;28;20126;-61
2022/09/03 04:02:21;;;;;;;12.40;9.10;;;;;;;19.50;83.41;99479.88;3145414;28;20083;-61
2022/09/03 04:03:56;;;;;;;16.25;10.25;;;;;;;19.50;83.59;99478.06;3145385;28;20446;-61
2022/09/03 04:05:29;;;;;;;15.07;10.18;;;;;;;19.48;83.43;99479.16;3145200;28;20060;-61
2022/09/03 04:07:01;;;;;;;17.90;9.95;;;;;;;19.47;83.57;99483.59;3145271;28;20060;-61
2022/09/03 04:08:35;;;;;;;12.68;9.88;;;;;;;19.47;83.53;99485.41;3144793;28;20853;-61
2022/09/03 04:10:08;;;;;;;20.88;10.13;;;;;;;19.45;83.08;99484.69;3145424;28;20374;-61
2022/09/03 04:11:40;;;;;;;;;;;;;;;19.41;83.50;99486.78;3145677;28;20052;-61
2022/09/03 04:13:12;;;;;;;17.70;9.52;;;;;;;19.39;83.11;99486.06;3145460;28;19921;-61
2022/09/03 04:14:44;;;;;;;14.77;9.27;;;;;;;19.37;83.15;99485.34;3145167;28;20453;-61
2022/09/03 04:16:17;;;;;;;17.13;9.68;;;;;;;19.36;83.33;99485.50;3145304;28;20421;-61
2022/09/03 04:17:49;;;;;;;12.80;8.75;;;;;;;19.34;83.35;99490.91;3145367;28;20052;-61
2022/09/03 04:19:21;;;;;;;16.73;9.50;;;;;;;19.33;83.29;99492.72;3144887;28;20052;-61
2022/09/03 04:20:58;;;;;;;14.52;9.82;;;;;;;19.33;83.37;99498.00;3144849;28;20476;-61
2022/09/03 04:22:30;;;;;;;14.32;8.75;;;;;;;19.32;83.35;99491.06;3144942;28;20044;-61
2022/09/03 04:24:05;;;;;;;14.35;9.43;;;;;;;19.33;83.00;99491.88;3145006;28;20055;-61
2022/09/03 04:25:36;;;;;;;12.25;9.00;;;;;;;19.32;82.96;99490.22;3145071;28;20056;-61
2022/09/03 04:27:08;;;;;;;13.40;8.88;;;;;;;19.27;83.07;99485.31;3144933;28;20074;-61
2022/09/03 04:28:41;;;;;;;11.55;8.55;;;;;;;19.23;83.15;99497.13;3145234;28;20053;-61
2022/09/03 04:30:13;;;;;;;20.52;10.13;;;;;;;19.25;83.19;99494.34;3144862;28;20543;-61
2022/09/03 04:32:51;;;;;;;12.52;8.63;;;;;;;19.22;82.71;99495.44;3144908;28;20048;-61
2022/09/03 04:33:37;;;;;;;12.45;7.93;;;;;;;19.20;82.86;99497.41;3144881;28;20068;-62
2022/09/03 04:35:09;;;;;;;11.23;7.97;;;;;;;19.19;82.63;99500.97;3145070;28;20059;-61
2022/09/03 04:36:42;;;;;;;15.73;7.75;;;;;;;19.22;82.78;99505.16;3145041;28;20488;-61
2022/09/03 04:38:14;;;;;;;14.27;8.35;;;;;;;19.20;82.78;99499.19;3144761;28;20053;-61
2022/09/03 04:39:46;;;;;;;11.23;8.30;;;;;;;19.20;83.03;99496.56;3140037;28;20051;-60
2022/09/03 04:41:19;;;;;;;15.50;8.00;;;;;;;19.22;82.67;99500.72;3144800;28;20052;-61
2022/09/03 04:42:56;;;;;;;9.57;6.65;;;;;;;19.22;82.72;99499.88;3146147;28;20090;-61
2022/09/03 04:44:28;;;;;;;15.80;7.75;;;;;;;19.21;82.61;99503.50;3144991;28;20052;-61
2022/09/03 04:46:00;;;;;;;15.55;7.88;;;;;;;19.21;82.85;99500.88;3144546;28;20055;-61
2022/09/03 04:47:32;;;;;;;14.27;7.50;;;;;;;19.21;82.54;99514.91;3146464;28;20056;-61
2022/09/03 04:49:06;;;;;;;10.77;7.43;;;;;;;19.21;82.83;99504.34;3147607;28;20059;-61
2022/09/03 04:50:37;;;;;;;11.35;7.88;;;;;;;19.24;82.77;99512.00;3147632;28;20052;-61
2022/09/03 04:52:10;;;;;;;14.45;7.70;;;;;;;19.26;82.43;99509.22;3147618;28;20067;-61
2022/09/03 04:53:44;;;;;;;13.45;7.72;;;;;;;19.27;82.38;99511.72;3147423;28;20579;-61
2022/09/03 04:55:15;;;;;;;12.07;7.65;;;;;;;19.27;82.76;99517.00;3147604;28;20048;-61
2022/09/03 04:56:47;;;;;;;14.48;7.03;;;;;;;19.25;82.41;99520.75;3147493;28;20739;-61
2022/09/03 04:58:18;;;;;;;13.75;7.80;;;;;;;19.23;82.91;99528.81;3147405;28;20056;-61
2022/09/03 04:59:50;;;;;;;14.68;7.60;;;;;;;19.26;82.65;99528.53;3147574;28;20154;-61
2022/09/03 05:01:23;;;;;;;15.05;8.13;;;;;;;19.30;82.90;99529.09;3147499;28;20075;-62
2022/09/03 05:02:55;;;;;;;20.25;8.02;;;;;;;19.32;82.84;99517.44;3147219;28;20067;-61
2022/09/03 05:04:27;;;;;;;12.18;7.85;;;;;;;19.30;83.00;99526.47;3147502;28;20056;-61
2022/09/03 05:05:59;;;;;;;13.50;7.40;;;;;;;19.29;82.89;99525.63;3140762;28;20067;-61
2022/09/03 05:07:37;;;;;;;15.75;7.93;;;;;;;19.33;82.63;99527.03;3147439;28;20052;-61
2022/09/03 05:09:09;;;;;;;13.45;7.75;;;;;;;19.35;82.75;99532.19;3146669;28;20037;-61
2022/09/03 05:10:41;;;;;;;8.93;6.95;;;;;;;19.39;82.94;99525.69;3147427;28;20049;-61
2022/09/03 05:12:12;;;;;;;15.93;7.80;;;;;;;19.42;82.81;99535.13;3147604;28;20061;-61
2022/09/03 05:13:47;;;;;;;13.88;8.02;;;;;;;19.40;82.65;99526.50;3147348;28;20056;-61
2022/09/03 05:15:19;;;;;;;16.02;8.25;;;;;;;19.40;82.92;99529.16;3147078;28;20049;-61
2022/09/03 05:16:51;;;;;;;20.02;8.75;;;;;;;19.38;83.15;99531.09;3147573;28;20049;-62
2022/09/03 05:18:23;;;;;;;14.13;8.70;;;;;;;19.40;82.93;99534.44;3147454;28;20075;-61
2022/09/03 05:19:55;;;;;;;14.52;8.60;;;;;;;19.38;82.75;99531.09;3147365;28;20041;-61
2022/09/03 05:21:28;;;;;;;14.25;8.60;;;;;;;19.43;82.84;99531.53;3147188;28;20059;-61
2022/09/03 05:23:03;;;;;;;;;;;;;;;19.40;83.14;99531.78;3147926;28;20052;-61
2022/09/03 05:24:35;;;;;;;14.82;8.65;;;;;;;19.43;82.84;99537.66;3147107;28;20385;-60
2022/09/03 05:26:08;;;;;;;14.23;8.70;;;;;;;19.49;83.12;99542.41;3147392;28;20059;-61
2022/09/03 05:27:39;;;;;;;13.43;7.72;;;;;;;19.52;83.31;99542.16;3147143;28;20048;-60
2022/09/03 05:29:11;;;;;;;12.93;7.93;;;;;;;19.53;82.82;99545.63;3147319;28;20036;-60
2022/09/03 05:30:43;;;;;;;13.88;7.28;;;;;;;19.56;82.91;99548.00;3147131;28;20136;-61
2022/09/03 05:32:16;;;;;;;10.57;6.97;;;;;;;19.60;82.84;99549.38;3142584;28;20055;-61
2022/09/03 05:33:49;;;;;;;11.90;7.35;;;;;;;19.62;82.29;99550.09;3146878;28;20048;-60
2022/09/03 05:35:21;;;;;;;14.70;7.13;;;;;;;19.64;82.10;99548.19;3147284;28;20045;-61
2022/09/03 05:36:53;;;;;;;11.75;6.95;;;;;;;19.70;82.52;99546.81;3146879;28;20053;-61
2022/09/03 05:38:25;;;;;;;13.30;6.55;;;;;;;19.77;82.09;99538.22;3150741;28;20490;-61
2022/09/03 05:39:56;;;;;;;13.98;7.13;;;;;;;19.86;81.72;99552.44;3146869;28;20053;-61
2022/09/03 05:41:30;;;;;;;10.60;7.57;;;;;;;19.93;81.54;99550.91;3147164;28;20052;-61
2022/09/03 05:43:01;;;;;;;10.15;6.70;;;;;;;20.02;81.41;99557.19;3147176;28;20041;-61
2022/09/03 05:44:33;;;;;;;10.23;6.35;;;;;;;20.09;80.37;99555.69;3145486;28;20060;-61
2022/09/03 05:46:06;;;;;;;9.15;6.03;;;;;;;20.14;80.19;99550.00;3146921;28;20558;-61
2022/09/03 05:47:39;;;;;;;14.57;6.00;;;;;;;20.29;79.74;99559.22;3147144;28;20044;-60
2022/09/03 05:49:11;;;;;;;10.93;5.97;;;;;;;20.38;79.29;99552.25;3146679;28;20572;-61
2022/09/03 05:50:43;;;;;;;11.07;6.63;;;;;;;20.51;79.25;99558.13;3146985;28;20086;-61
2022/09/03 05:52:15;;;;;;;9.25;6.20;;;;;;;20.60;78.52;99557.31;3146889;28;20055;-61
2022/09/03 05:53:49;;;;;;;10.20;5.30;;;;;;;20.72;78.19;99565.09;3147093;28;20083;-61
2022/09/03 05:55:21;;;;;;;9.40;6.35;;;;;;;20.82;77.16;99563.28;3146946;28;20437;-61
2022/09/03 05:56:53;;;;;;;14.15;5.65;;;;;;;20.91;76.95;99559.78;3146398;28;20433;-61
2022/09/03 05:58:25;;;;;;;10.43;6.22;;;;;;;21.01;76.46;99552.69;3146801;28;20129;-60
2022/09/03 05:59:57;;;;;;;8.68;5.82;;;;;;;21.12;75.51;99557.81;3146467;28;20085;-60
2022/09/03 06:01:31;;;;;;;9.40;5.38;;;;;;;21.23;74.72;99556.78;3146682;28;20048;-61
2022/09/03 06:03:03;;;;;;;9.77;6.20;;;;;;;21.34;74.65;99550.50;3146729;28;20095;-61
2022/09/03 06:04:35;;;;;;;8.10;5.57;;;;;;;21.47;73.74;99556.34;3146657;28;20048;-61
2022/09/03 06:06:07;;;;;;;7.72;5.88;;;;;;;21.54;73.80;99541.53;3146881;28;20124;-61
2022/09/03 06:07:39;;;;;;;9.10;6.10;;;;;;;21.67;73.01;99551.81;3146544;28;20526;-60
2022/09/03 06:09:14;;;;;;;8.20;5.88;;;;;;;21.74;72.24;99558.19;3146576;28;20517;-61
2022/09/03 06:10:46;;;;;;;9.38;6.10;;;;;;;21.84;71.56;99565.28;3146853;28;20041;-60
2022/09/03 06:12:18;;;;;;;8.40;6.10;;;;;;;21.92;71.62;99563.56;3146018;28;20052;-61
2022/09/03 06:13:49;;;;;;;10.00;5.65;;;;;;;21.92;70.64;99571.50;3146268;28;20048;-61
2022/09/03 06:15:20;;;;;;;10.50;5.65;;;;;;;21.93;70.20;99561.72;3146559;28;20053;-61
2022/09/03 06:16:54;;;;;;;10.75;6.03;;;;;;;21.99;70.42;99567.25;3146550;28;20442;-60
2022/09/03 06:18:27;;;;;;;11.07;6.50;;;;;;;22.08;70.25;99554.09;3146346;28;20048;-60
2022/09/03 06:19:59;;;;;;;9.73;5.78;;;;;;;22.18;70.30;99566.38;3146263;28;20044;-61
2022/09/03 06:21:30;;;;;;;10.93;5.93;;;;;;;22.26;70.36;99557.63;3146649;28;20045;-61
2022/09/03 06:23:03;;;;;;;10.18;6.13;;;;;;;22.31;70.02;99563.34;3146415;28;20052;-60
2022/09/03 06:24:36;;;;;;;12.15;6.50;;;;;;;22.39;69.88;99566.09;3146178;28;20045;-61
2022/09/03 06:26:09;;;;;;;9.30;6.22;;;;;;;22.48;69.74;99562.53;3146592;28;20056;-61
2022/09/03 06:27:40;;;;;;;9.55;5.75;;;;;;;22.57;69.43;99566.09;3146612;28;20952;-61
2022/09/03 06:29:12;;;;;;;10.30;5.90;;;;;;;22.60;68.49;99570.25;3146257;28;20045;-61
2022/09/03 06:30:44;;;;;;;10.43;6.25;;;;;;;22.65;68.03;99571.44;3146096;28;20578;-60
2022/09/03 06:32:16;;;;;;;8.23;6.57;;;;;;;;;;3146039;28;20056;-61
2022/09/03 06:33:47;;;;;;;8.43;5.82;;;;;;;22.61;67.61;99553.34;3146382;28;20055;-61
2022/09/03 06:35:19;;;;;;;12.48;6.07;;;;;;;22.69;67.73;99569.34;3146375;28;20068;-60
2022/09/03 06:36:51;;;;;;;12.38;6.18;;;;;;;22.75;67.54;99567.91;3146191;28;20052;-60
2022/09/03 06:38:22;;;;;;;11.23;6.05;;;;;;;22.80;67.36;99561.13;3145473;28;20178;-60
2022/09/03 06:39:55;;;;;;;8.73;6.20;;;;;;;22.84;66.98;99554.53;3146151;28;20490;-62
2022/09/03 06:41:34;;;;;;;10.73;5.13;;;;;;;22.92;66.94;99565.22;3146566;28;20048;-60
2022/09/03 06:43:06;;;;;;;13.25;5.82;;;;;;;23.02;66.34;99572.28;3146506;28;20048;-60
2022/09/03 06:44:37;;;;;;;9.18;5.90;;;;;;;23.05;65.75;99566.66;3146045;28;20056;-60
2022/09/03 06:46:10;;;;;;;9.88;5.72;;;;;;;23.12;65.93;99563.22;3146206;28;20655;-60
2022/09/03 06:47:42;;;;;;;9.55;6.05;;;;;;;23.16;65.45;99566.41;3145836;28;20044;-61
2022/09/03 06:49:14;;;;;;;8.95;6.03;;;;;;;23.22;65.06;99567.59;3145986;28;20060;-60
2022/09/03 06:50:54;;;;;;;11.90;5.07;;;;;;;23.26;65.43;99569.78;3146264;28;20045;-60
2022/09/03 06:52:25;;;;;;;8.25;6.10;;;;;;;23.27;65.11;99575.94;3146127;28;20310;-60
2022/09/03 06:54:01;;;;;;;7.90;5.72;;;;;;;23.31;64.84;99564.84;3146294;28;20067;-60
2022/09/03 06:55:34;;;;;;;11.05;6.63;;;;;;;23.30;64.93;99565.81;3146065;28;20064;-60
2022/09/03 06:57:06;;;;;;;8.82;5.47;;;;;;;23.31;64.66;99574.66;3145834;28;20041;-60
2022/09/03 06:58:42;;;;;;;9.77;5.97;;;;;;;23.30;64.80;99563.16;3146131;28;20048;-61
2022/09/03 07:00:15;;;;;;;11.85;6.18;;;;;;;23.35;65.23;99562.69;3145810;28;20508;-60
2022/09/03 07:01:47;;;;;;;;;;;;;;;23.33;64.93;99573.47;3146608;28;20048;-60
2022/09/03 07:03:18;;;;;;;11.63;6.38;;;;;;;23.38;65.21;99570.34;3146101;28;19973;-61
2022/09/03 07:04:50;;;;;;;14.80;6.45;;;;;;;23.42;65.05;99569.03;3146148;28;20064;-60
2022/09/03 07:06:23;;;;;;;11.55;5.90;;;;;;;23.48;64.70;99573.72;3146036;28;20055;-62
2022/09/03 07:07:55;;;;;;;10.88;6.20;;;;;;;23.56;64.64;99572.94;3145473;28;20051;-62
2022/09/03 07:09:27;;;;;;;9.30;5.82;;;;;;;23.60;64.42;99572.50;3146108;28;20055;-59
2022/09/03 07:11:04;;;;;;;10.00;5.47;;;;;;;23.70;63.83;99577.72;3143539;28;20139;-61
2022/09/03 07:12:36;;;;;;;12.55;6.47;;;;;;;23.77;64.01;99559.28;3146087;28;20052;-61
2022/09/03 07:14:08;;;;;;;8.20;6.03;;;;;;;23.86;63.29;99568.97;3146039;28;20056;-61
2022/09/03 07:15:40;;;;;;;11.25;6.07;;;;;;;23.96;63.24;99571.47;3145844;28;20052;-61
2022/09/03 07:17:12;;;;;;;12.55;6.43;;;;;;;24.14;63.25;99579.38;3146106;28;20052;-61
2022/09/03 07:18:43;;;;;;;11.68;6.28;;;;;;;24.32;62.95;99581.91;3145647;28;20060;-62
2022/09/03 07:20:15;;;;;;;8.52;6.07;;;;;;;24.46;62.29;99579.47;3145514;28;20053;-62
2022/09/03 07:21:47;;;;;;;9.60;6.10;;;;;;;24.63;61.56;99582.16;3145898;28;20478;-62
2022/09/03 07:23:17;;;;;;;8.70;5.30;;;;;;;24.82;61.37;99581.00;3145586;28;20052;-62